createdAt,value
2022-11-01T00:02:43.539Z,15.60
2022-11-01T00:07:47.805Z,15.50
2022-11-01T00:12:50.691Z,15.60
2022-11-01T00:17:53.581Z,15.60
2022-11-01T00:22:57.858Z,15.50
2022-11-01T00:28:00.978Z,15.60
2022-11-01T00:33:04.424Z,15.60
2022-11-01T00:38:08.688Z,15.30
2022-11-01T00:43:12.293Z,15.10
2022-11-01T00:48:15.574Z,14.80
2022-11-01T00:53:20.287Z,14.80
2022-11-01T00:58:23.169Z,15.10
2022-11-01T01:03:26.097Z,15.40
2022-11-01T01:08:30.524Z,15.60
2022-11-01T01:13:33.448Z,15.70
2022-11-01T01:18:36.422Z,15.70
2022-11-01T01:23:40.892Z,15.80
2022-11-01T01:28:45.037Z,15.80
2022-11-01T01:33:48.025Z,15.80
2022-11-01T01:38:54.171Z,15.90
2022-11-01T01:43:57.040Z,15.90
2022-11-01T01:49:00.976Z,15.80
2022-11-01T01:54:07.391Z,15.90
2022-11-01T01:59:11.800Z,16.00
2022-11-01T02:04:22.958Z,16.10
2022-11-01T02:09:29.484Z,15.90
2022-11-01T02:14:34.740Z,15.90
2022-11-01T02:20:08.819Z,16.00
2022-11-01T02:25:49.090Z,16.00
2022-11-01T02:31:06.094Z,15.90
2022-11-01T02:36:17.373Z,15.90
2022-11-01T02:41:26.424Z,16.00
2022-11-01T02:46:52.039Z,15.90
2022-11-01T02:51:58.285Z,16.00
2022-11-01T02:57:27.226Z,16.00
2022-11-01T03:02:42.014Z,16.10
2022-11-01T03:07:50.802Z,16.00
2022-11-01T03:13:07.755Z,16.00
2022-11-01T03:18:14.593Z,16.10
2022-11-01T03:23:24.368Z,16.20
2022-11-01T03:28:33.835Z,16.40
2022-11-01T03:33:40.929Z,16.50
2022-11-01T03:38:51.440Z,16.60
2022-11-01T03:43:55.643Z,16.70
2022-11-01T03:48:58.580Z,16.80
2022-11-01T03:54:02.837Z,16.90
2022-11-01T03:59:05.800Z,16.80
2022-11-01T04:04:08.695Z,16.90
2022-11-01T04:09:12.948Z,16.90
2022-11-01T04:14:33.293Z,16.90
2022-11-01T04:19:53.468Z,16.90
2022-11-01T04:24:57.655Z,16.90
2022-11-01T04:30:00.530Z,16.80
2022-11-01T04:35:03.553Z,16.80
2022-11-01T04:40:09.695Z,16.80
2022-11-01T04:45:12.591Z,16.80
2022-11-01T04:50:15.578Z,16.90
2022-11-01T04:55:19.882Z,16.80
2022-11-01T05:00:24.893Z,16.90
2022-11-01T05:05:27.785Z,16.80
2022-11-01T05:10:32.476Z,16.80
2022-11-01T05:15:39.986Z,16.80
2022-11-01T05:20:50.936Z,16.90
2022-11-01T05:25:55.160Z,16.90
2022-11-01T05:30:59.288Z,17.00
2022-11-01T05:36:02.814Z,17.00
2022-11-01T05:41:07.327Z,17.00
2022-11-01T05:46:10.361Z,17.00
2022-11-01T05:51:13.300Z,17.00
2022-11-01T05:56:17.872Z,17.00
2022-11-01T06:01:21.340Z,17.00
2022-11-01T06:06:24.367Z,17.00
2022-11-01T06:11:30.132Z,17.00
2022-11-01T06:16:33.758Z,17.10
2022-11-01T06:21:36.739Z,17.10
2022-11-01T06:26:41.230Z,17.10
2022-11-01T06:31:44.189Z,17.00
2022-11-01T06:36:47.085Z,17.10
2022-11-01T06:41:52.022Z,17.10
2022-11-01T06:46:55.389Z,17.20
2022-11-01T06:51:58.839Z,17.20
2022-11-01T06:57:03.103Z,17.20
2022-11-01T07:02:08.878Z,17.30
2022-11-01T07:07:14.076Z,17.20
2022-11-01T07:12:18.419Z,17.10
2022-11-01T07:17:21.333Z,17.00
2022-11-01T07:22:24.475Z,16.80
2022-11-01T07:27:28.717Z,16.70
2022-11-01T07:32:33.344Z,16.70
2022-11-01T07:37:38.115Z,16.70
2022-11-01T07:42:46.407Z,16.70
2022-11-01T07:47:49.424Z,16.90
2022-11-01T07:53:00.691Z,16.80
2022-11-01T07:58:06.243Z,16.80
2022-11-01T08:03:12.234Z,17.00
2022-11-01T08:08:15.963Z,17.00
2022-11-01T08:13:22.662Z,17.00
2022-11-01T08:18:25.582Z,17.10
2022-11-01T08:23:28.555Z,17.20
2022-11-01T08:28:32.794Z,17.40
2022-11-01T08:33:37.793Z,17.40
2022-11-01T08:38:40.700Z,17.50
2022-11-01T08:43:45.150Z,17.60
2022-11-01T08:48:48.308Z,17.60
2022-11-01T08:53:51.184Z,17.70
2022-11-01T08:58:56.108Z,17.60
2022-11-01T09:04:00.388Z,17.80
2022-11-01T09:09:03.488Z,17.90
2022-11-01T09:14:07.838Z,17.90
2022-11-01T09:19:10.882Z,17.90
2022-11-01T09:24:14.663Z,18.10
2022-11-01T09:29:21.286Z,18.00
2022-11-01T09:34:24.339Z,18.10
2022-11-01T09:39:27.601Z,18.10
2022-11-01T09:44:34.979Z,18.10
2022-11-01T09:49:41.894Z,18.10
2022-11-01T09:54:44.832Z,18.20
2022-11-01T09:59:58.301Z,18.20
2022-11-01T10:05:22.754Z,18.30
2022-11-01T10:10:36.771Z,18.40
2022-11-01T10:15:53.006Z,18.30
2022-11-01T10:20:57.717Z,18.40
2022-11-01T10:26:09.198Z,18.50
2022-11-01T10:31:17.349Z,18.60
2022-11-01T10:36:24.772Z,18.60
2022-11-01T10:41:35.867Z,18.60
2022-11-01T10:46:45.481Z,18.00
2022-11-01T10:52:04.056Z,17.40
2022-11-01T10:57:28.615Z,17.10
2022-11-01T11:02:36.885Z,17.30
2022-11-01T11:07:40.190Z,17.20
2022-11-01T11:12:43.686Z,17.10
2022-11-01T11:17:53.006Z,17.20
2022-11-01T11:22:56.102Z,17.20
2022-11-01T11:27:59.962Z,17.40
2022-11-01T11:33:04.907Z,17.20
2022-11-01T11:38:08.254Z,17.40
2022-11-01T11:43:34.224Z,17.00
2022-11-01T11:48:47.867Z,17.60
2022-11-01T11:54:11.111Z,17.60
2022-11-01T11:59:23.374Z,18.00
2022-11-01T12:04:32.130Z,17.80
2022-11-01T12:09:45.050Z,17.90
2022-11-01T12:14:47.943Z,17.90
2022-11-01T12:20:00.064Z,17.80
2022-11-01T12:25:08.282Z,17.70
2022-11-01T12:30:19.804Z,17.80
2022-11-01T12:35:31.833Z,18.00
2022-11-01T12:40:38.341Z,17.80
2022-11-01T12:45:49.999Z,17.60
2022-11-01T12:50:59.981Z,17.90
2022-11-01T12:56:02.933Z,18.00
2022-11-01T13:01:32.917Z,18.10
2022-11-01T13:06:49.955Z,18.30
2022-11-01T13:12:00.334Z,18.20
2022-11-01T13:17:10.160Z,18.30
2022-11-01T13:22:20.782Z,18.40
2022-11-01T13:27:29.090Z,18.50
2022-11-01T13:32:39.187Z,18.40
2022-11-01T13:37:49.468Z,18.40
2022-11-01T13:42:56.331Z,18.60
2022-11-01T13:48:08.808Z,18.50
2022-11-01T13:53:21.298Z,18.50
2022-11-01T13:58:24.730Z,18.60
2022-11-01T14:03:30.691Z,18.40
2022-11-01T14:08:38.375Z,18.50
2022-11-01T14:13:45.766Z,18.50
2022-11-01T14:19:16.034Z,18.60
2022-11-01T14:24:30.710Z,18.50
2022-11-01T14:29:37.645Z,18.50
2022-11-01T14:34:42.670Z,18.60
2022-11-01T14:40:00.760Z,18.60
2022-11-01T14:45:25.763Z,18.70
2022-11-01T14:50:35.436Z,18.70
2022-11-01T14:55:39.682Z,18.80
2022-11-01T15:00:42.948Z,18.70
2022-11-01T15:05:47.673Z,18.80
2022-11-01T15:10:53.079Z,18.80
2022-11-01T15:16:04.840Z,18.80
2022-11-01T15:21:15.631Z,18.70
2022-11-01T15:26:22.588Z,18.60
2022-11-01T15:31:25.938Z,18.50
2022-11-01T15:36:32.816Z,18.70
2022-11-01T15:41:37.154Z,18.50
2022-11-01T15:46:42.766Z,18.70
2022-11-01T15:51:49.963Z,18.80
2022-11-01T15:56:57.248Z,18.60
2022-11-01T16:02:04.850Z,18.70
2022-11-01T16:07:09.665Z,18.60
2022-11-01T16:12:18.895Z,18.20
2022-11-01T16:17:31.590Z,18.30
2022-11-01T16:22:37.835Z,18.40
2022-11-01T16:28:00.105Z,18.10
2022-11-01T16:33:25.106Z,18.00
2022-11-01T16:38:43.311Z,18.00
2022-11-01T16:43:48.398Z,17.80
2022-11-01T16:48:55.698Z,17.80
2022-11-01T16:54:00.198Z,17.70
2022-11-01T16:59:15.476Z,17.60
2022-11-01T17:04:19.885Z,17.50
2022-11-01T17:09:41.118Z,17.50
2022-11-01T17:14:45.815Z,17.50
2022-11-01T17:19:54.314Z,17.40
2022-11-01T17:25:06.240Z,17.20
2022-11-01T17:30:11.788Z,17.30
2022-11-01T17:35:15.258Z,17.20
2022-11-01T17:40:20.715Z,17.00
2022-11-01T17:45:25.105Z,17.10
2022-11-01T17:50:28.047Z,17.10
2022-11-01T17:55:30.985Z,17.20
2022-11-01T18:00:35.951Z,17.00
2022-11-01T18:05:45.742Z,17.10
2022-11-01T18:10:58.287Z,17.30
2022-11-01T18:16:08.242Z,17.10
2022-11-01T18:21:18.378Z,17.00
2022-11-01T18:26:24.486Z,17.00
2022-11-01T18:31:33.967Z,17.10
2022-11-01T18:36:46.427Z,17.00
2022-11-01T18:41:50.708Z,16.90
2022-11-01T18:47:00.822Z,16.90
2022-11-01T18:52:03.744Z,16.70
2022-11-01T18:57:13.318Z,16.70
2022-11-01T19:02:21.738Z,16.60
2022-11-01T19:07:39.413Z,16.50
2022-11-01T19:12:50.420Z,16.60
2022-11-01T19:17:58.885Z,16.50
2022-11-01T19:23:10.222Z,16.40
2022-11-01T19:28:20.419Z,16.30
2022-11-01T19:33:33.936Z,16.30
2022-11-01T19:38:43.186Z,16.30
2022-11-01T19:43:46.184Z,16.10
2022-11-01T19:48:51.601Z,16.10
2022-11-01T19:53:54.656Z,16.10
2022-11-01T19:58:58.508Z,16.00
2022-11-01T20:04:10.752Z,15.90
2022-11-01T20:09:19.561Z,15.70
2022-11-01T20:14:22.800Z,15.70
2022-11-01T20:19:27.016Z,15.60
2022-11-01T20:24:30.889Z,15.50
2022-11-01T20:29:33.817Z,15.40
2022-11-01T20:34:40.170Z,15.40
2022-11-01T20:39:43.104Z,15.50
2022-11-01T20:44:46.127Z,15.50
2022-11-01T20:49:50.423Z,15.40
2022-11-01T20:54:53.394Z,15.40
2022-11-01T20:59:56.320Z,15.40
2022-11-01T21:05:03.712Z,15.00
2022-11-01T21:10:30.775Z,15.00
2022-11-01T21:15:36.810Z,15.10
2022-11-01T21:20:42.809Z,15.20
2022-11-01T21:25:46.372Z,15.40
2022-11-01T21:30:49.283Z,15.10
2022-11-01T21:35:53.923Z,15.20
2022-11-01T21:40:59.251Z,14.90
2022-11-01T21:46:02.214Z,14.80
2022-11-01T21:51:06.804Z,14.90
2022-11-01T21:56:09.725Z,14.90
2022-11-01T22:01:13.923Z,14.90
2022-11-01T22:06:18.317Z,14.90
2022-11-01T22:11:23.722Z,14.90
2022-11-01T22:16:27.071Z,14.80
2022-11-01T22:21:31.915Z,14.80
2022-11-01T22:26:34.877Z,14.70
2022-11-01T22:31:37.795Z,14.60
2022-11-01T22:36:43.141Z,14.60
2022-11-01T22:41:46.182Z,14.50
2022-11-01T22:46:56.785Z,14.50
2022-11-01T22:52:06.115Z,14.40
2022-11-01T22:57:17.036Z,14.40
2022-11-01T23:02:27.592Z,14.40
2022-11-01T23:07:36.395Z,14.50
2022-11-01T23:12:56.947Z,14.60
2022-11-01T23:18:07.411Z,14.40
2022-11-01T23:23:17.176Z,14.40
2022-11-01T23:28:20.461Z,14.40
2022-11-01T23:33:26.406Z,14.40
2022-11-01T23:38:36.017Z,14.50
2022-11-01T23:43:41.425Z,14.50
2022-11-01T23:48:44.759Z,14.50
2022-11-01T23:53:52.767Z,14.50
2022-11-01T23:59:00.497Z,14.60
